createdAt,value
2022-10-18T00:00:02.157Z,21.4
2022-10-18T00:15:01.767Z,21.05
2022-10-18T00:30:02.442Z,21.54
2022-10-18T00:45:02.105Z,22.26
2022-10-18T01:00:01.766Z,22.3
2022-10-18T01:15:01.893Z,22.39
2022-10-18T01:30:01.675Z,22.22
2022-10-18T01:45:02.334Z,22.54
2022-10-18T02:00:01.953Z,22.34
2022-10-18T02:15:01.601Z,22.56
2022-10-18T02:30:02.260Z,22.19
2022-10-18T02:45:01.970Z,21.81
2022-10-18T03:00:01.625Z,21.95
2022-10-18T03:15:02.295Z,21.56
2022-10-18T03:30:01.998Z,21.89
2022-10-18T03:45:01.660Z,22.4
2022-10-18T04:00:02.311Z,22.62
2022-10-18T04:15:01.983Z,22.51
2022-10-18T04:30:01.666Z,22.55
2022-10-18T04:45:02.280Z,22.36
2022-10-18T05:00:01.998Z,22.46
2022-10-18T05:15:01.669Z,22.58
2022-10-18T05:30:05.357Z,22.79
2022-10-18T05:45:01.647Z,22.93
2022-10-18T06:00:02.222Z,22.57
2022-10-18T06:15:01.840Z,22.63
2022-10-18T06:30:01.550Z,22.73
2022-10-18T06:45:02.190Z,22.66
2022-10-18T07:00:01.873Z,22.3
2022-10-18T07:15:05.557Z,22.04
2022-10-18T07:30:02.007Z,21.93
2022-10-18T07:45:01.730Z,22.01
2022-10-18T08:00:01.364Z,22.11
2022-10-18T08:15:02.055Z,22.61
2022-10-18T08:30:01.814Z,22.66
2022-10-18T08:45:08.287Z,22.67
2022-10-18T09:00:01.532Z,22.66
2022-10-18T09:15:02.213Z,23.2
2022-10-18T09:30:01.913Z,24.49
2022-10-18T09:45:01.587Z,24.65
2022-10-18T10:00:02.217Z,28.4
2022-10-18T10:15:01.894Z,30.06
2022-10-18T10:30:06.556Z,31.25
2022-10-18T10:45:01.849Z,33.37
2022-10-18T11:00:01.504Z,33.16
2022-10-18T11:15:02.108Z,33.64
2022-10-18T11:30:01.848Z,34.5
2022-10-18T11:45:01.503Z,35.43
2022-10-18T12:00:02.151Z,35.78
2022-10-18T12:15:01.836Z,34.86
2022-10-18T12:30:01.539Z,35.22
2022-10-18T12:45:01.243Z,35.49
2022-10-18T13:00:01.881Z,34.65
2022-10-18T13:15:12.486Z,34.98
2022-10-18T13:30:01.763Z,34.86
2022-10-18T13:45:01.417Z,34.26
2022-10-18T14:00:02.093Z,33.99
2022-10-18T14:15:01.772Z,33.2
2022-10-18T14:30:01.474Z,33.15
2022-10-18T14:45:01.228Z,32.2
2022-10-18T15:00:01.992Z,30.96
2022-10-18T15:15:01.685Z,29.52
2022-10-18T15:30:01.433Z,28.61
2022-10-18T15:45:01.279Z,27.72
2022-10-18T16:00:02.102Z,26.11
2022-10-18T16:15:01.814Z,24.51
2022-10-18T16:30:01.472Z,22.04
2022-10-18T16:45:02.110Z,20.72
2022-10-18T17:00:01.784Z,19.68
2022-10-18T17:15:01.427Z,18.94
2022-10-18T17:30:02.096Z,18.47
2022-10-18T17:45:01.945Z,18.04
2022-10-18T18:00:01.831Z,17.54
2022-10-18T18:15:02.455Z,17.31
2022-10-18T18:30:02.165Z,17.3
2022-10-18T18:45:01.847Z,17.14
2022-10-18T19:00:02.429Z,17.05
2022-10-18T19:15:02.064Z,16.7
2022-10-18T19:30:01.770Z,16.22
2022-10-18T19:45:02.413Z,15.85
2022-10-18T20:00:03.542Z,15.31
2022-10-18T20:15:02.222Z,15.1
2022-10-18T20:30:01.909Z,14.86
2022-10-18T20:45:01.558Z,14.64
2022-10-18T21:00:02.161Z,14.44
2022-10-18T21:15:01.804Z,14.24
2022-10-18T21:30:01.575Z,13.9
2022-10-18T21:45:02.283Z,14.01
2022-10-18T22:00:01.901Z,14.13
2022-10-18T22:15:01.564Z,13.9
2022-10-18T22:30:02.218Z,13.75
2022-10-18T22:45:01.843Z,13.35
2022-10-18T23:00:01.462Z,13.18
2022-10-18T23:15:02.097Z,12.67
2022-10-18T23:30:01.796Z,12.7
2022-10-18T23:45:01.438Z,12.4
